CPT904 PHMK-PHNL
Flight info
| Callsign | CPT904 |
|---|---|
| Flight time | 0h 25m |
| Altitude | 8000 |
| Route | MKK V8 HNL |
| Aircraft | C208/L-SDFGR/C |
Departure
| Time | 2026-04-24 00:51 |
|---|---|
| Airport | Molokai Airport (PHMK) |
Arrival
| Time | 2026-04-24 01:16 |
|---|---|
| Airport | Daniel K. Inouye International Airport (PHNL) |
| Time | Latitude | Longitude | Altitude | Speed | Heading |
|---|---|---|---|---|---|
| 2026-04-24 00:43 | 21.15539 | -157.09240 | 462 ft | 0 kts | 57° |
| 2026-04-24 00:46 | 21.15540 | -157.09237 | 462 ft | 2 kts | 64° |
| 2026-04-24 00:47 | 21.15508 | -157.09238 | 462 ft | 11 kts | 234° |
| 2026-04-24 00:47 | 21.15452 | -157.09342 | 462 ft | 21 kts | 240° |
| 2026-04-24 00:47 | 21.15365 | -157.09504 | 462 ft | 26 kts | 240° |
| 2026-04-24 00:47 | 21.15293 | -157.09641 | 461 ft | 16 kts | 240° |
| 2026-04-24 00:48 | 21.15246 | -157.09729 | 460 ft | 12 kts | 240° |
| 2026-04-24 00:48 | 21.15198 | -157.09819 | 461 ft | 16 kts | 241° |
| 2026-04-24 00:48 | 21.15137 | -157.09937 | 461 ft | 20 kts | 239° |
| 2026-04-24 00:48 | 21.15076 | -157.10047 | 462 ft | 0 kts | 238° |
| 2026-04-24 00:49 | 21.15068 | -157.10062 | 462 ft | 7 kts | 240° |
| 2026-04-24 00:49 | 21.15044 | -157.10106 | 462 ft | 2 kts | 239° |
| 2026-04-24 00:49 | 21.15030 | -157.10126 | 462 ft | 2 kts | 202° |
| 2026-04-24 00:49 | 21.14990 | -157.10105 | 463 ft | 7 kts | 139° |
| 2026-04-24 00:50 | 21.14980 | -157.10080 | 463 ft | 5 kts | 62° |
| 2026-04-24 00:50 | 21.14981 | -157.10079 | 463 ft | 0 kts | 62° |
| 2026-04-24 00:50 | 21.14985 | -157.10070 | 463 ft | 15 kts | 61° |
| 2026-04-24 00:50 | 21.15158 | -157.09743 | 505 ft | 74 kts | 61° |
| 2026-04-24 00:51 | 21.15432 | -157.09342 | 934 ft | 66 kts | 51° |
| 2026-04-24 00:51 | 21.15830 | -157.09089 | 1312 ft | 71 kts | 7° |
| 2026-04-24 00:51 | 21.16233 | -157.09430 | 1676 ft | 86 kts | 301° |
| 2026-04-24 00:51 | 21.16477 | -157.10090 | 1938 ft | 104 kts | 297° |
| 2026-04-24 00:52 | 21.16757 | -157.10858 | 2203 ft | 114 kts | 297° |
| 2026-04-24 00:52 | 21.17089 | -157.11683 | 2461 ft | 128 kts | 298° |
| 2026-04-24 00:52 | 21.17472 | -157.12585 | 2731 ft | 138 kts | 298° |
| 2026-04-24 00:52 | 21.17881 | -157.13539 | 2990 ft | 144 kts | 298° |
| 2026-04-24 00:53 | 21.18318 | -157.14527 | 3251 ft | 146 kts | 297° |
| 2026-04-24 00:53 | 21.18364 | -157.15600 | 3484 ft | 149 kts | 250° |
| 2026-04-24 00:53 | 21.17904 | -157.16597 | 3744 ft | 149 kts | 244° |
| 2026-04-24 00:53 | 21.17451 | -157.17589 | 3993 ft | 149 kts | 244° |
| 2026-04-24 00:54 | 21.16984 | -157.18580 | 4249 ft | 148 kts | 243° |
| 2026-04-24 00:54 | 21.16526 | -157.19549 | 4492 ft | 146 kts | 243° |
| 2026-04-24 00:54 | 21.16076 | -157.20515 | 4734 ft | 143 kts | 244° |
| 2026-04-24 00:54 | 21.15635 | -157.21463 | 4981 ft | 142 kts | 243° |
| 2026-04-24 00:55 | 21.15196 | -157.22406 | 5226 ft | 141 kts | 243° |
| 2026-04-24 00:55 | 21.14759 | -157.23346 | 5477 ft | 141 kts | 243° |
| 2026-04-24 00:55 | 21.14321 | -157.24289 | 5724 ft | 142 kts | 244° |
| 2026-04-24 00:55 | 21.13862 | -157.25218 | 5972 ft | 140 kts | 241° |
| 2026-04-24 00:56 | 21.13384 | -157.26117 | 6220 ft | 139 kts | 237° |
| 2026-04-24 00:56 | 21.13010 | -157.27056 | 6451 ft | 138 kts | 261° |
| 2026-04-24 00:56 | 21.12906 | -157.28080 | 6705 ft | 139 kts | 264° |
| 2026-04-24 00:56 | 21.12812 | -157.29109 | 6953 ft | 139 kts | 265° |
| 2026-04-24 00:57 | 21.12727 | -157.30135 | 7201 ft | 138 kts | 265° |
| 2026-04-24 00:57 | 21.12646 | -157.31159 | 7448 ft | 138 kts | 265° |
| 2026-04-24 00:57 | 21.12483 | -157.33194 | 7943 ft | 137 kts | 265° |
| 2026-04-24 00:58 | 21.12399 | -157.34252 | 8001 ft | 149 kts | 265° |
| 2026-04-24 00:58 | 21.12309 | -157.35398 | 8009 ft | 159 kts | 265° |
| 2026-04-24 00:58 | 21.12212 | -157.36602 | 8008 ft | 165 kts | 265° |
| 2026-04-24 00:58 | 21.12146 | -157.37416 | 8011 ft | 167 kts | 265° |
| 2026-04-24 00:59 | 21.12044 | -157.38661 | 8010 ft | 169 kts | 265° |
| 2026-04-24 00:59 | 21.11943 | -157.39916 | 8008 ft | 170 kts | 265° |
| 2026-04-24 00:59 | 21.11809 | -157.41587 | 8009 ft | 170 kts | 265° |
| 2026-04-24 00:59 | 21.11740 | -157.42442 | 8008 ft | 170 kts | 265° |
| 2026-04-24 01:00 | 21.11605 | -157.44118 | 8009 ft | 171 kts | 265° |
| 2026-04-24 01:00 | 21.11536 | -157.44969 | 8008 ft | 168 kts | 265° |
| 2026-04-24 01:00 | 21.11437 | -157.46197 | 8000 ft | 163 kts | 265° |
| 2026-04-24 01:00 | 21.11342 | -157.47382 | 7995 ft | 161 kts | 265° |
| 2026-04-24 01:01 | 21.11247 | -157.48576 | 7991 ft | 160 kts | 265° |
| 2026-04-24 01:01 | 21.11150 | -157.49758 | 7992 ft | 159 kts | 265° |
| 2026-04-24 01:01 | 21.11055 | -157.50933 | 7992 ft | 158 kts | 265° |
| 2026-04-24 01:01 | 21.10960 | -157.52108 | 7991 ft | 158 kts | 265° |
| 2026-04-24 01:02 | 21.10865 | -157.53283 | 7991 ft | 158 kts | 265° |
| 2026-04-24 01:02 | 21.10769 | -157.54458 | 7991 ft | 158 kts | 265° |
| 2026-04-24 01:02 | 21.10649 | -157.56034 | 7984 ft | 158 kts | 270° |
| 2026-04-24 01:02 | 21.10765 | -157.56805 | 7924 ft | 162 kts | 285° |
| 2026-04-24 01:03 | 21.11092 | -157.57986 | 7757 ft | 168 kts | 287° |
| 2026-04-24 01:03 | 21.11422 | -157.59200 | 7590 ft | 171 kts | 287° |
| 2026-04-24 01:03 | 21.11755 | -157.60430 | 7421 ft | 173 kts | 286° |
| 2026-04-24 01:03 | 21.12089 | -157.61667 | 7251 ft | 173 kts | 286° |
| 2026-04-24 01:04 | 21.12425 | -157.62904 | 7080 ft | 173 kts | 286° |
| 2026-04-24 01:04 | 21.12761 | -157.64145 | 6906 ft | 173 kts | 286° |
| 2026-04-24 01:04 | 21.13097 | -157.65385 | 6720 ft | 173 kts | 286° |
| 2026-04-24 01:04 | 21.13432 | -157.66624 | 6556 ft | 173 kts | 286° |
| 2026-04-24 01:05 | 21.13764 | -157.67865 | 6382 ft | 173 kts | 286° |
| 2026-04-24 01:05 | 21.14090 | -157.69088 | 6209 ft | 173 kts | 286° |
| 2026-04-24 01:05 | 21.14420 | -157.70329 | 6032 ft | 173 kts | 286° |
| 2026-04-24 01:05 | 21.14749 | -157.71572 | 5865 ft | 173 kts | 286° |
| 2026-04-24 01:06 | 21.15078 | -157.72813 | 5678 ft | 173 kts | 286° |
| 2026-04-24 01:06 | 21.15407 | -157.74052 | 5508 ft | 173 kts | 287° |
| 2026-04-24 01:06 | 21.15732 | -157.75291 | 5336 ft | 173 kts | 286° |
| 2026-04-24 01:06 | 21.16055 | -157.76532 | 5155 ft | 173 kts | 286° |
| 2026-04-24 01:07 | 21.16376 | -157.77774 | 4981 ft | 173 kts | 286° |
| 2026-04-24 01:07 | 21.16695 | -157.79016 | 4806 ft | 173 kts | 286° |
| 2026-04-24 01:07 | 21.17013 | -157.80259 | 4629 ft | 172 kts | 287° |
| 2026-04-24 01:07 | 21.17328 | -157.81499 | 4454 ft | 173 kts | 286° |
| 2026-04-24 01:08 | 21.17644 | -157.82743 | 4279 ft | 173 kts | 286° |
| 2026-04-24 01:08 | 21.17957 | -157.83987 | 4102 ft | 173 kts | 286° |
| 2026-04-24 01:08 | 21.18266 | -157.85234 | 3929 ft | 173 kts | 286° |
| 2026-04-24 01:08 | 21.18574 | -157.86478 | 3759 ft | 173 kts | 286° |
| 2026-04-24 01:09 | 21.18879 | -157.87716 | 3580 ft | 173 kts | 287° |
| 2026-04-24 01:09 | 21.19183 | -157.88967 | 3407 ft | 174 kts | 286° |
| 2026-04-24 01:09 | 21.19485 | -157.90216 | 3232 ft | 173 kts | 286° |
| 2026-04-24 01:09 | 21.19790 | -157.91471 | 3055 ft | 173 kts | 286° |
| 2026-04-24 01:10 | 21.20087 | -157.92711 | 2977 ft | 168 kts | 286° |
| 2026-04-24 01:10 | 21.20370 | -157.93905 | 2972 ft | 163 kts | 286° |
| 2026-04-24 01:10 | 21.20651 | -157.95078 | 2965 ft | 162 kts | 286° |
| 2026-04-24 01:10 | 21.20931 | -157.96241 | 2967 ft | 160 kts | 286° |
| 2026-04-24 01:11 | 21.21206 | -157.97395 | 2966 ft | 159 kts | 286° |
| 2026-04-24 01:11 | 21.21481 | -157.98546 | 2966 ft | 160 kts | 286° |
| 2026-04-24 01:11 | 21.21756 | -157.99697 | 2973 ft | 159 kts | 286° |
| 2026-04-24 01:11 | 21.22058 | -158.00835 | 3001 ft | 156 kts | 294° |
| 2026-04-24 01:12 | 21.22650 | -158.01772 | 2986 ft | 155 kts | 319° |
| 2026-04-24 01:12 | 21.23542 | -158.02437 | 2942 ft | 154 kts | 342° |
| 2026-04-24 01:12 | 21.24563 | -158.02506 | 2812 ft | 145 kts | 15° |
| 2026-04-24 01:12 | 21.25473 | -158.02077 | 2659 ft | 139 kts | 42° |
| 2026-04-24 01:13 | 21.25973 | -158.01206 | 2507 ft | 138 kts | 66° |
| 2026-04-24 01:13 | 21.26388 | -158.00290 | 2464 ft | 140 kts | 65° |
| 2026-04-24 01:13 | 21.26861 | -157.99348 | 2353 ft | 147 kts | 59° |
| 2026-04-24 01:13 | 21.27435 | -157.98451 | 2206 ft | 136 kts | 56° |
| 2026-04-24 01:14 | 21.27913 | -157.97661 | 1938 ft | 117 kts | 56° |
| 2026-04-24 01:14 | 21.28363 | -157.96964 | 1680 ft | 112 kts | 55° |
| 2026-04-24 01:14 | 21.28803 | -157.96325 | 1483 ft | 102 kts | 53° |
| 2026-04-24 01:14 | 21.29236 | -157.95734 | 1283 ft | 98 kts | 52° |
| 2026-04-24 01:15 | 21.29625 | -157.95185 | 1099 ft | 85 kts | 54° |
| 2026-04-24 01:15 | 21.29972 | -157.94682 | 880 ft | 85 kts | 56° |
| 2026-04-24 01:15 | 21.30336 | -157.94192 | 647 ft | 85 kts | 52° |
| 2026-04-24 01:15 | 21.30695 | -157.93686 | 419 ft | 85 kts | 54° |
| 2026-04-24 01:16 | 21.31057 | -157.93187 | 205 ft | 82 kts | 56° |
| 2026-04-24 01:16 | 21.31392 | -157.92716 | 45 ft | 77 kts | 51° |
| 2026-04-24 01:16 | 21.31684 | -157.92305 | 25 ft | 62 kts | 54° |
| 2026-04-24 01:16 | 21.31905 | -157.91990 | 23 ft | 34 kts | 52° |
| 2026-04-24 01:17 | 21.31891 | -157.91846 | 23 ft | 12 kts | 148° |
| 2026-04-24 01:17 | 21.31832 | -157.91823 | 23 ft | 12 kts | 187° |
| 2026-04-24 01:17 | 21.31767 | -157.91804 | 23 ft | 8 kts | 179° |
| 2026-04-24 01:17 | 21.31738 | -157.91787 | 23 ft | 7 kts | 47° |
| 2026-04-24 01:18 | 21.31754 | -157.91791 | 23 ft | 0 kts | 319° |